sensor_id;sensor_type;location;lat;lon;timestamp;pressure;altitude;pressure_sealevel;temperature
70415;BMP280;57837;52.064;113.478;2023-04-06T00:02:33;94194.94;;;6.04
70415;BMP280;57837;52.064;113.478;2023-04-06T00:05:36;94183.66;;;6.48
70415;BMP280;57837;52.064;113.478;2023-04-06T00:08:39;94190.03;;;6.87
70415;BMP280;57837;52.064;113.478;2023-04-06T00:11:44;94184.13;;;6.66
70415;BMP280;57837;52.064;113.478;2023-04-06T00:14:47;94174.22;;;6.41
70415;BMP280;57837;52.064;113.478;2023-04-06T00:17:51;94186.78;;;6.59
70415;BMP280;57837;52.064;113.478;2023-04-06T00:20:54;94177.78;;;6.94
70415;BMP280;57837;52.064;113.478;2023-04-06T00:23:58;94187.47;;;6.63
70415;BMP280;57837;52.064;113.478;2023-04-06T00:27:02;94177.50;;;6.89
70415;BMP280;57837;52.064;113.478;2023-04-06T00:30:07;94191.47;;;6.68
70415;BMP280;57837;52.064;113.478;2023-04-06T00:33:10;94190.63;;;5.97
70415;BMP280;57837;52.064;113.478;2023-04-06T00:36:14;94174.72;;;6.06
70415;BMP280;57837;52.064;113.478;2023-04-06T00:39:17;94161.31;;;5.95
70415;BMP280;57837;52.064;113.478;2023-04-06T00:42:23;94174.56;;;6.67
70415;BMP280;57837;52.064;113.478;2023-04-06T00:45:29;94156.97;;;6.85
70415;BMP280;57837;52.064;113.478;2023-04-06T00:48:33;94165.94;;;7.76
70415;BMP280;57837;52.064;113.478;2023-04-06T00:51:37;94172.34;;;7.87
70415;BMP280;57837;52.064;113.478;2023-04-06T00:54:41;94154.41;;;7.80
70415;BMP280;57837;52.064;113.478;2023-04-06T00:57:46;94155.72;;;7.88
70415;BMP280;57837;52.064;113.478;2023-04-06T01:00:51;94143.78;;;7.42
70415;BMP280;57837;52.064;113.478;2023-04-06T01:03:56;94152.44;;;7.52
70415;BMP280;57837;52.064;113.478;2023-04-06T01:07:00;94152.06;;;7.34
70415;BMP280;57837;52.064;113.478;2023-04-06T01:10:25;94158.56;;;7.58
70415;BMP280;57837;52.064;113.478;2023-04-06T01:13:46;94152.88;;;7.47
70415;BMP280;57837;52.064;113.478;2023-04-06T01:17:01;94157.84;;;7.57
70415;BMP280;57837;52.064;113.478;2023-04-06T01:20:07;94158.16;;;7.59
70415;BMP280;57837;52.064;113.478;2023-04-06T01:23:11;94151.31;;;7.69
70415;BMP280;57837;52.064;113.478;2023-04-06T01:26:20;94157.25;;;8.02
70415;BMP280;57837;52.064;113.478;2023-04-06T01:29:25;94155.97;;;7.94
70415;BMP280;57837;52.064;113.478;2023-04-06T01:32:28;94159.63;;;7.41
70415;BMP280;57837;52.064;113.478;2023-04-06T01:35:32;94167.28;;;6.38
70415;BMP280;57837;52.064;113.478;2023-04-06T01:39:04;94157.59;;;6.93
70415;BMP280;57837;52.064;113.478;2023-04-06T01:42:10;94165.75;;;7.31
70415;BMP280;57837;52.064;113.478;2023-04-06T01:45:15;94154.63;;;7.34
70415;BMP280;57837;52.064;113.478;2023-04-06T01:48:19;94167.19;;;5.65
70415;BMP280;57837;52.064;113.478;2023-04-06T01:51:24;94159.66;;;6.08
70415;BMP280;57837;52.064;113.478;2023-04-06T01:54:34;94148.31;;;6.56
70415;BMP280;57837;52.064;113.478;2023-04-06T01:57:49;94148.72;;;5.74
70415;BMP280;57837;52.064;113.478;2023-04-06T02:01:04;94145.16;;;5.67
70415;BMP280;57837;52.064;113.478;2023-04-06T02:04:21;94134.00;;;5.47
70415;BMP280;57837;52.064;113.478;2023-04-06T02:07:30;94135.03;;;4.89
70415;BMP280;57837;52.064;113.478;2023-04-06T02:10:35;94125.72;;;5.66
70415;BMP280;57837;52.064;113.478;2023-04-06T02:13:47;94124.03;;;5.83
70415;BMP280;57837;52.064;113.478;2023-04-06T02:16:51;94135.94;;;6.24
70415;BMP280;57837;52.064;113.478;2023-04-06T02:19:56;94133.66;;;6.02
70415;BMP280;57837;52.064;113.478;2023-04-06T02:23:00;94128.09;;;5.81
70415;BMP280;57837;52.064;113.478;2023-04-06T02:26:03;94140.13;;;6.14
70415;BMP280;57837;52.064;113.478;2023-04-06T02:29:07;94136.16;;;6.06
70415;BMP280;57837;52.064;113.478;2023-04-06T02:32:10;94141.25;;;5.86
70415;BMP280;57837;52.064;113.478;2023-04-06T02:35:14;94131.94;;;6.19
70415;BMP280;57837;52.064;113.478;2023-04-06T02:38:18;94132.19;;;6.95
70415;BMP280;57837;52.064;113.478;2023-04-06T02:41:22;94117.19;;;6.27
70415;BMP280;57837;52.064;113.478;2023-04-06T02:44:26;94123.31;;;5.52
70415;BMP280;57837;52.064;113.478;2023-04-06T02:47:29;94130.31;;;5.79
70415;BMP280;57837;52.064;113.478;2023-04-06T02:50:33;94137.78;;;5.69
70415;BMP280;57837;52.064;113.478;2023-04-06T02:53:40;94114.56;;;5.77
70415;BMP280;57837;52.064;113.478;2023-04-06T02:56:43;94113.81;;;6.30
70415;BMP280;57837;52.064;113.478;2023-04-06T02:59:48;94102.97;;;6.42
70415;BMP280;57837;52.064;113.478;2023-04-06T03:02:57;94107.31;;;5.98
70415;BMP280;57837;52.064;113.478;2023-04-06T03:06:02;94106.31;;;4.97
70415;BMP280;57837;52.064;113.478;2023-04-06T03:09:06;94118.78;;;4.58
70415;BMP280;57837;52.064;113.478;2023-04-06T03:12:13;94111.53;;;4.53
70415;BMP280;57837;52.064;113.478;2023-04-06T03:15:35;94106.72;;;4.96
70415;BMP280;57837;52.064;113.478;2023-04-06T03:18:48;94103.03;;;4.97
70415;BMP280;57837;52.064;113.478;2023-04-06T03:21:52;94096.59;;;4.41
70415;BMP280;57837;52.064;113.478;2023-04-06T03:24:57;94084.22;;;3.80
70415;BMP280;57837;52.064;113.478;2023-04-06T03:28:05;94076.69;;;3.52
70415;BMP280;57837;52.064;113.478;2023-04-06T03:31:15;94080.97;;;4.28
70415;BMP280;57837;52.064;113.478;2023-04-06T03:34:30;94082.72;;;3.90
70415;BMP280;57837;52.064;113.478;2023-04-06T03:37:34;94077.84;;;3.40
70415;BMP280;57837;52.064;113.478;2023-04-06T03:40:39;94068.72;;;3.43
70415;BMP280;57837;52.064;113.478;2023-04-06T03:43:43;94066.53;;;3.31
70415;BMP280;57837;52.064;113.478;2023-04-06T03:46:46;94073.31;;;2.68
70415;BMP280;57837;52.064;113.478;2023-04-06T03:49:51;94055.66;;;3.16
70415;BMP280;57837;52.064;113.478;2023-04-06T03:52:55;94063.78;;;2.83
70415;BMP280;57837;52.064;113.478;2023-04-06T03:55:59;94057.63;;;2.59
70415;BMP280;57837;52.064;113.478;2023-04-06T03:59:05;94059.47;;;2.62
70415;BMP280;57837;52.064;113.478;2023-04-06T04:02:10;94044.47;;;2.67
70415;BMP280;57837;52.064;113.478;2023-04-06T04:05:13;94045.59;;;2.63
70415;BMP280;57837;52.064;113.478;2023-04-06T04:08:17;94055.09;;;2.41
70415;BMP280;57837;52.064;113.478;2023-04-06T04:11:21;94039.34;;;2.71
70415;BMP280;57837;52.064;113.478;2023-04-06T04:14:31;94033.84;;;2.79
70415;BMP280;57837;52.064;113.478;2023-04-06T04:17:35;94023.66;;;2.72
70415;BMP280;57837;52.064;113.478;2023-04-06T04:20:39;94029.81;;;2.93
70415;BMP280;57837;52.064;113.478;2023-04-06T04:23:44;94033.03;;;3.04
70415;BMP280;57837;52.064;113.478;2023-04-06T04:26:48;94026.25;;;2.55
70415;BMP280;57837;52.064;113.478;2023-04-06T04:29:52;94014.19;;;2.62
70415;BMP280;57837;52.064;113.478;2023-04-06T04:32:56;94021.50;;;2.57
70415;BMP280;57837;52.064;113.478;2023-04-06T04:35:59;94033.19;;;2.33
70415;BMP280;57837;52.064;113.478;2023-04-06T04:39:10;94017.88;;;1.97
70415;BMP280;57837;52.064;113.478;2023-04-06T04:42:18;94013.88;;;2.21
70415;BMP280;57837;52.064;113.478;2023-04-06T04:45:25;94017.81;;;2.68
70415;BMP280;57837;52.064;113.478;2023-04-06T04:48:30;94007.66;;;2.43
70415;BMP280;57837;52.064;113.478;2023-04-06T04:51:36;94000.00;;;2.43
70415;BMP280;57837;52.064;113.478;2023-04-06T04:54:51;93996.69;;;2.54
70415;BMP280;57837;52.064;113.478;2023-04-06T04:58:01;93993.78;;;2.48
70415;BMP280;57837;52.064;113.478;2023-04-06T05:01:19;93994.50;;;2.63
70415;BMP280;57837;52.064;113.478;2023-04-06T05:04:24;93984.94;;;2.77
70415;BMP280;57837;52.064;113.478;2023-04-06T05:07:32;93980.63;;;2.57
70415;BMP280;57837;52.064;113.478;2023-04-06T05:10:37;93997.44;;;2.36
70415;BMP280;57837;52.064;113.478;2023-04-06T05:13:42;93968.28;;;2.23
70415;BMP280;57837;52.064;113.478;2023-04-06T05:16:53;93973.00;;;2.32
70415;BMP280;57837;52.064;113.478;2023-04-06T05:19:59;93986.53;;;2.22
70415;BMP280;57837;52.064;113.478;2023-04-06T05:23:05;93989.06;;;2.00
70415;BMP280;57837;52.064;113.478;2023-04-06T05:26:09;93988.00;;;1.84
70415;BMP280;57837;52.064;113.478;2023-04-06T05:29:13;93973.41;;;1.91
70415;BMP280;57837;52.064;113.478;2023-04-06T05:32:16;93976.31;;;2.11
70415;BMP280;57837;52.064;113.478;2023-04-06T05:35:25;93967.56;;;2.12
70415;BMP280;57837;52.064;113.478;2023-04-06T05:38:33;93966.81;;;2.29
70415;BMP280;57837;52.064;113.478;2023-04-06T05:41:46;93967.22;;;2.10
70415;BMP280;57837;52.064;113.478;2023-04-06T05:44:50;93951.88;;;1.99
70415;BMP280;57837;52.064;113.478;2023-04-06T05:47:54;93955.16;;;1.96
70415;BMP280;57837;52.064;113.478;2023-04-06T05:51:01;93939.84;;;2.00
70415;BMP280;57837;52.064;113.478;2023-04-06T05:54:20;93939.13;;;2.14
70415;BMP280;57837;52.064;113.478;2023-04-06T05:57:25;93938.75;;;2.26
70415;BMP280;57837;52.064;113.478;2023-04-06T06:00:29;93925.94;;;2.36
70415;BMP280;57837;52.064;113.478;2023-04-06T06:03:39;93930.69;;;2.38
70415;BMP280;57837;52.064;113.478;2023-04-06T06:06:42;93921.81;;;2.67
70415;BMP280;57837;52.064;113.478;2023-04-06T06:09:57;93936.47;;;2.56
70415;BMP280;57837;52.064;113.478;2023-04-06T06:13:07;93930.31;;;2.32
70415;BMP280;57837;52.064;113.478;2023-04-06T06:16:10;93939.88;;;1.86
70415;BMP280;57837;52.064;113.478;2023-04-06T06:19:19;93920.16;;;2.00
70415;BMP280;57837;52.064;113.478;2023-04-06T06:22:24;93904.78;;;2.32
70415;BMP280;57837;52.064;113.478;2023-04-06T06:25:27;93919.69;;;2.52
70415;BMP280;57837;52.064;113.478;2023-04-06T06:28:33;93919.38;;;2.39
70415;BMP280;57837;52.064;113.478;2023-04-06T06:31:38;93913.56;;;2.21
70415;BMP280;57837;52.064;113.478;2023-04-06T06:34:42;93913.19;;;2.26
70415;BMP280;57837;52.064;113.478;2023-04-06T06:37:46;93903.69;;;2.37
70415;BMP280;57837;52.064;113.478;2023-04-06T06:40:53;93898.94;;;2.42
70415;BMP280;57837;52.064;113.478;2023-04-06T06:44:00;93904.31;;;2.66
70415;BMP280;57837;52.064;113.478;2023-04-06T06:47:03;93897.00;;;2.71
70415;BMP280;57837;52.064;113.478;2023-04-06T06:50:07;93897.00;;;2.64
70415;BMP280;57837;52.064;113.478;2023-04-06T06:53:11;93887.59;;;2.47
70415;BMP280;57837;52.064;113.478;2023-04-06T06:56:15;93881.84;;;2.29
70415;BMP280;57837;52.064;113.478;2023-04-06T06:59:18;93889.13;;;2.20
70415;BMP280;57837;52.064;113.478;2023-04-06T07:02:25;93886.25;;;2.11
70415;BMP280;57837;52.064;113.478;2023-04-06T07:05:29;93889.16;;;2.13
70415;BMP280;57837;52.064;113.478;2023-04-06T07:08:33;93884.72;;;2.31
70415;BMP280;57837;52.064;113.478;2023-04-06T07:11:37;93873.34;;;2.50
70415;BMP280;57837;52.064;113.478;2023-04-06T07:14:41;93871.81;;;2.66
70415;BMP280;57837;52.064;113.478;2023-04-06T07:17:46;93868.50;;;2.73
70415;BMP280;57837;52.064;113.478;2023-04-06T07:20:51;93861.72;;;2.34
70415;BMP280;57837;52.064;113.478;2023-04-06T07:23:55;93873.44;;;2.25
70415;BMP280;57837;52.064;113.478;2023-04-06T07:27:00;93869.75;;;2.40
70415;BMP280;57837;52.064;113.478;2023-04-06T07:30:04;93866.81;;;2.45
70415;BMP280;57837;52.064;113.478;2023-04-06T07:33:09;93866.84;;;2.31
70415;BMP280;57837;52.064;113.478;2023-04-06T07:36:13;93866.09;;;2.34
70415;BMP280;57837;52.064;113.478;2023-04-06T07:39:18;93855.16;;;2.33
70415;BMP280;57837;52.064;113.478;2023-04-06T07:42:22;93855.53;;;2.39
70415;BMP280;57837;52.064;113.478;2023-04-06T07:45:26;93863.56;;;2.37
70415;BMP280;57837;52.064;113.478;2023-04-06T07:48:31;93859.09;;;2.52
70415;BMP280;57837;52.064;113.478;2023-04-06T07:51:38;93845.53;;;2.69
70415;BMP280;57837;52.064;113.478;2023-04-06T07:54:42;93856.47;;;2.70
70415;BMP280;57837;52.064;113.478;2023-04-06T07:57:47;93856.91;;;2.61
70415;BMP280;57837;52.064;113.478;2023-04-06T08:00:50;93853.63;;;2.54
70415;BMP280;57837;52.064;113.478;2023-04-06T08:03:56;93840.13;;;2.57
70415;BMP280;57837;52.064;113.478;2023-04-06T08:07:00;93843.03;;;2.62
70415;BMP280;57837;52.064;113.478;2023-04-06T08:10:04;93839.94;;;2.89
70415;BMP280;57837;52.064;113.478;2023-04-06T08:13:08;93844.94;;;3.03
70415;BMP280;57837;52.064;113.478;2023-04-06T08:16:11;93838.63;;;3.22
70415;BMP280;57837;52.064;113.478;2023-04-06T08:19:14;93853.34;;;3.03
70415;BMP280;57837;52.064;113.478;2023-04-06T08:22:20;93848.19;;;3.10
70415;BMP280;57837;52.064;113.478;2023-04-06T08:25:24;93815.28;;;3.16
70415;BMP280;57837;52.064;113.478;2023-04-06T08:28:28;93838.72;;;3.04
70415;BMP280;57837;52.064;113.478;2023-04-06T08:31:31;93841.25;;;3.11
70415;BMP280;57837;52.064;113.478;2023-04-06T08:34:36;93833.25;;;3.02
70415;BMP280;57837;52.064;113.478;2023-04-06T08:37:39;93850.03;;;3.10
70415;BMP280;57837;52.064;113.478;2023-04-06T08:40:44;93844.19;;;3.06
70415;BMP280;57837;52.064;113.478;2023-04-06T08:44:00;93842.00;;;3.04
70415;BMP280;57837;52.064;113.478;2023-04-06T08:47:04;93849.91;;;3.28
70415;BMP280;57837;52.064;113.478;2023-04-06T08:50:09;93849.09;;;3.34
70415;BMP280;57837;52.064;113.478;2023-04-06T08:53:15;93845.50;;;3.28
70415;BMP280;57837;52.064;113.478;2023-04-06T08:56:19;93848.88;;;3.18
70415;BMP280;57837;52.064;113.478;2023-04-06T08:59:25;93850.41;;;3.05
70415;BMP280;57837;52.064;113.478;2023-04-06T09:02:29;93848.66;;;2.98
70415;BMP280;57837;52.064;113.478;2023-04-06T09:05:34;93835.94;;;2.88
70415;BMP280;57837;52.064;113.478;2023-04-06T09:08:40;93839.94;;;2.89
70415;BMP280;57837;52.064;113.478;2023-04-06T09:11:46;93835.50;;;2.96
70415;BMP280;57837;52.064;113.478;2023-04-06T09:14:49;93840.16;;;3.08
70415;BMP280;57837;52.064;113.478;2023-04-06T09:17:53;93836.50;;;3.13
70415;BMP280;57837;52.064;113.478;2023-04-06T09:21:02;93839.41;;;3.15
70415;BMP280;57837;52.064;113.478;2023-04-06T09:24:08;93833.22;;;3.12
70415;BMP280;57837;52.064;113.478;2023-04-06T09:27:14;93841.63;;;3.06
70415;BMP280;57837;52.064;113.478;2023-04-06T09:30:17;93834.34;;;3.04
70415;BMP280;57837;52.064;113.478;2023-04-06T09:33:24;93826.38;;;2.95
70415;BMP280;57837;52.064;113.478;2023-04-06T09:36:34;93843.53;;;2.98
70415;BMP280;57837;52.064;113.478;2023-04-06T09:39:37;93841.00;;;2.95
70415;BMP280;57837;52.064;113.478;2023-04-06T09:42:42;93834.78;;;2.96
70415;BMP280;57837;52.064;113.478;2023-04-06T09:45:45;93843.59;;;2.91
70415;BMP280;57837;52.064;113.478;2023-04-06T09:48:51;93837.44;;;2.78
70415;BMP280;57837;52.064;113.478;2023-04-06T09:51:59;93840.91;;;3.05
70415;BMP280;57837;52.064;113.478;2023-04-06T09:55:05;93847.00;;;3.26
70415;BMP280;57837;52.064;113.478;2023-04-06T09:58:16;93844.31;;;2.92
70415;BMP280;57837;52.064;113.478;2023-04-06T10:01:28;93850.53;;;2.87
70415;BMP280;57837;52.064;113.478;2023-04-06T10:04:47;93841.78;;;2.85
70415;BMP280;57837;52.064;113.478;2023-04-06T10:07:54;93845.81;;;2.86
70415;BMP280;57837;52.064;113.478;2023-04-06T10:11:02;93839.25;;;2.81
70415;BMP280;57837;52.064;113.478;2023-04-06T10:14:06;93848.88;;;3.22
70415;BMP280;57837;52.064;113.478;2023-04-06T10:17:11;93852.41;;;3.35
70415;BMP280;57837;52.064;113.478;2023-04-06T10:20:21;93848.22;;;3.03
70415;BMP280;57837;52.064;113.478;2023-04-06T10:23:35;93845.13;;;2.74
70415;BMP280;57837;52.064;113.478;2023-04-06T10:26:39;93845.59;;;2.62
70415;BMP280;57837;52.064;113.478;2023-04-06T10:29:45;93848.81;;;2.66
70415;BMP280;57837;52.064;113.478;2023-04-06T10:32:49;93851.81;;;2.54
70415;BMP280;57837;52.064;113.478;2023-04-06T10:35:53;93852.22;;;2.42
70415;BMP280;57837;52.064;113.478;2023-04-06T10:39:01;93854.06;;;2.38
70415;BMP280;57837;52.064;113.478;2023-04-06T10:42:08;93856.63;;;2.31
70415;BMP280;57837;52.064;113.478;2023-04-06T10:45:20;93849.00;;;2.20
70415;BMP280;57837;52.064;113.478;2023-04-06T10:48:25;93860.31;;;2.26
70415;BMP280;57837;52.064;113.478;2023-04-06T10:51:39;93864.00;;;2.04
70415;BMP280;57837;52.064;113.478;2023-04-06T10:54:43;93866.94;;;1.92
70415;BMP280;57837;52.064;113.478;2023-04-06T10:57:49;93862.63;;;1.78
70415;BMP280;57837;52.064;113.478;2023-04-06T11:00:54;93867.38;;;1.58
70415;BMP280;57837;52.064;113.478;2023-04-06T11:03:59;93866.63;;;1.36
70415;BMP280;57837;52.064;113.478;2023-04-06T11:07:03;93869.19;;;1.22
70415;BMP280;57837;52.064;113.478;2023-04-06T11:10:08;93872.06;;;1.07
70415;BMP280;57837;52.064;113.478;2023-04-06T11:13:19;93870.22;;;0.93
70415;BMP280;57837;52.064;113.478;2023-04-06T11:16:28;93874.19;;;0.87
70415;BMP280;57837;52.064;113.478;2023-04-06T11:19:34;93872.72;;;0.79
70415;BMP280;57837;52.064;113.478;2023-04-06T11:22:51;93873.78;;;0.71
70415;BMP280;57837;52.064;113.478;2023-04-06T11:25:55;93878.13;;;0.63
70415;BMP280;57837;52.064;113.478;2023-04-06T11:28:59;93876.28;;;0.60
70415;BMP280;57837;52.064;113.478;2023-04-06T11:32:04;93882.78;;;0.47
70415;BMP280;57837;52.064;113.478;2023-04-06T11:35:26;93887.09;;;0.32
70415;BMP280;57837;52.064;113.478;2023-04-06T11:38:31;93892.13;;;0.21
70415;BMP280;57837;52.064;113.478;2023-04-06T11:41:35;93899.75;;;0.18
70415;BMP280;57837;52.064;113.478;2023-04-06T11:44:43;93904.84;;;0.18
70415;BMP280;57837;52.064;113.478;2023-04-06T11:47:58;93914.28;;;0.17
70415;BMP280;57837;52.064;113.478;2023-04-06T11:51:03;93909.91;;;0.14
70415;BMP280;57837;52.064;113.478;2023-04-06T11:54:07;93912.06;;;0.12
70415;BMP280;57837;52.064;113.478;2023-04-06T11:57:11;93916.75;;;0.07
70415;BMP280;57837;52.064;113.478;2023-04-06T12:00:16;93917.47;;;0.00
70415;BMP280;57837;52.064;113.478;2023-04-06T12:03:19;93922.09;;;-0.09
70415;BMP280;57837;52.064;113.478;2023-04-06T12:06:24;93920.97;;;-0.15
70415;BMP280;57837;52.064;113.478;2023-04-06T12:09:29;93934.00;;;-0.20
70415;BMP280;57837;52.064;113.478;2023-04-06T12:12:34;93937.59;;;-0.28
70415;BMP280;57837;52.064;113.478;2023-04-06T12:15:37;93941.16;;;-0.33
70415;BMP280;57837;52.064;113.478;2023-04-06T12:18:40;93930.22;;;-0.37
70415;BMP280;57837;52.064;113.478;2023-04-06T12:21:44;93940.69;;;-0.42
70415;BMP280;57837;52.064;113.478;2023-04-06T12:24:48;93939.97;;;-0.43
70415;BMP280;57837;52.064;113.478;2023-04-06T12:27:51;93945.72;;;-0.49
70415;BMP280;57837;52.064;113.478;2023-04-06T12:30:55;93937.31;;;-0.53
70415;BMP280;57837;52.064;113.478;2023-04-06T12:33:58;93941.66;;;-0.54
70415;BMP280;57837;52.064;113.478;2023-04-06T12:37:02;93947.47;;;-0.53
70415;BMP280;57837;52.064;113.478;2023-04-06T12:40:07;93952.88;;;-0.62
70415;BMP280;57837;52.064;113.478;2023-04-06T12:43:11;93951.59;;;-0.79
70415;BMP280;57837;52.064;113.478;2023-04-06T12:46:17;93955.16;;;-0.87
70415;BMP280;57837;52.064;113.478;2023-04-06T12:49:21;93956.19;;;-0.91
70415;BMP280;57837;52.064;113.478;2023-04-06T12:52:26;93953.94;;;-0.96
70415;BMP280;57837;52.064;113.478;2023-04-06T12:55:30;93951.75;;;-0.98
70415;BMP280;57837;52.064;113.478;2023-04-06T12:58:35;93953.66;;;-0.91
70415;BMP280;57837;52.064;113.478;2023-04-06T13:01:39;93963.03;;;-0.95
70415;BMP280;57837;52.064;113.478;2023-04-06T13:04:43;93949.81;;;-1.12
70415;BMP280;57837;52.064;113.478;2023-04-06T13:07:47;93947.94;;;-1.15
70415;BMP280;57837;52.064;113.478;2023-04-06T13:10:52;93949.28;;;-1.24
70415;BMP280;57837;52.064;113.478;2023-04-06T13:13:55;93947.38;;;-1.31
70415;BMP280;57837;52.064;113.478;2023-04-06T13:16:59;93954.53;;;-1.37
70415;BMP280;57837;52.064;113.478;2023-04-06T13:20:04;93940.00;;;-1.40
70415;BMP280;57837;52.064;113.478;2023-04-06T13:23:09;93944.03;;;-1.35
70415;BMP280;57837;52.064;113.478;2023-04-06T13:26:13;93942.56;;;-1.40
70415;BMP280;57837;52.064;113.478;2023-04-06T13:29:18;93938.84;;;-1.46
70415;BMP280;57837;52.064;113.478;2023-04-06T13:32:22;93939.19;;;-1.47
70415;BMP280;57837;52.064;113.478;2023-04-06T13:35:26;93940.31;;;-1.45
70415;BMP280;57837;52.064;113.478;2023-04-06T13:38:29;93937.34;;;-1.50
70415;BMP280;57837;52.064;113.478;2023-04-06T13:41:34;93930.44;;;-1.50
70415;BMP280;57837;52.064;113.478;2023-04-06T13:44:37;93931.19;;;-1.49
70415;BMP280;57837;52.064;113.478;2023-04-06T13:47:42;93941.63;;;-1.54
70415;BMP280;57837;52.064;113.478;2023-04-06T13:50:46;93941.97;;;-1.56
70415;BMP280;57837;52.064;113.478;2023-04-06T13:53:50;93930.69;;;-1.58
70415;BMP280;57837;52.064;113.478;2023-04-06T13:56:55;93934.25;;;-1.63
70415;BMP280;57837;52.064;113.478;2023-04-06T14:00:00;93934.63;;;-1.64
70415;BMP280;57837;52.064;113.478;2023-04-06T14:03:07;93925.16;;;-1.67
70415;BMP280;57837;52.064;113.478;2023-04-06T14:06:12;93929.16;;;-1.66
70415;BMP280;57837;52.064;113.478;2023-04-06T14:09:32;93926.31;;;-1.61
70415;BMP280;57837;52.064;113.478;2023-04-06T14:12:36;93923.00;;;-1.65
70415;BMP280;57837;52.064;113.478;2023-04-06T14:15:40;93915.75;;;-1.67
70415;BMP280;57837;52.064;113.478;2023-04-06T14:18:44;93913.16;;;-1.71
70415;BMP280;57837;52.064;113.478;2023-04-06T14:21:48;93921.84;;;-1.72
70415;BMP280;57837;52.064;113.478;2023-04-06T14:24:53;93904.72;;;-1.78
70415;BMP280;57837;52.064;113.478;2023-04-06T14:27:56;93908.94;;;-1.86
70415;BMP280;57837;52.064;113.478;2023-04-06T14:31:09;93908.41;;;-1.98
70415;BMP280;57837;52.064;113.478;2023-04-06T14:34:13;93908.63;;;-2.07
70415;BMP280;57837;52.064;113.478;2023-04-06T14:37:16;93912.19;;;-2.12
70415;BMP280;57837;52.064;113.478;2023-04-06T14:40:20;93908.53;;;-2.14
70415;BMP280;57837;52.064;113.478;2023-04-06T14:43:23;93899.38;;;-2.22
70415;BMP280;57837;52.064;113.478;2023-04-06T14:46:28;93904.31;;;-2.29
70415;BMP280;57837;52.064;113.478;2023-04-06T14:49:31;93909.97;;;-2.36
70415;BMP280;57837;52.064;113.478;2023-04-06T14:52:35;93905.53;;;-2.43
70415;BMP280;57837;52.064;113.478;2023-04-06T14:55:39;93904.03;;;-2.47
70415;BMP280;57837;52.064;113.478;2023-04-06T14:58:44;93907.63;;;-2.48
70415;BMP280;57837;52.064;113.478;2023-04-06T15:01:48;93910.38;;;-2.57
70415;BMP280;57837;52.064;113.478;2023-04-06T15:04:52;93898.56;;;-2.69
70415;BMP280;57837;52.064;113.478;2023-04-06T15:07:56;93900.56;;;-2.81
70415;BMP280;57837;52.064;113.478;2023-04-06T15:11:00;93897.28;;;-2.82
70415;BMP280;57837;52.064;113.478;2023-04-06T15:14:06;93905.81;;;-2.90
70415;BMP280;57837;52.064;113.478;2023-04-06T15:17:09;93905.09;;;-2.90
70415;BMP280;57837;52.064;113.478;2023-04-06T15:20:13;93903.53;;;-2.95
70415;BMP280;57837;52.064;113.478;2023-04-06T15:23:16;93898.41;;;-2.99
70415;BMP280;57837;52.064;113.478;2023-04-06T15:26:20;93896.69;;;-3.14
70415;BMP280;57837;52.064;113.478;2023-04-06T15:29:24;93895.50;;;-3.20
70415;BMP280;57837;52.064;113.478;2023-04-06T15:32:28;93900.78;;;-3.44
70415;BMP280;57837;52.064;113.478;2023-04-06T15:35:33;93892.97;;;-3.55
70415;BMP280;57837;52.064;113.478;2023-04-06T15:38:37;93892.75;;;-3.66
70415;BMP280;57837;52.064;113.478;2023-04-06T15:41:41;93891.63;;;-3.68
70415;BMP280;57837;52.064;113.478;2023-04-06T15:44:45;93895.38;;;-3.62
70415;BMP280;57837;52.064;113.478;2023-04-06T15:47:49;93887.97;;;-3.51
70415;BMP280;57837;52.064;113.478;2023-04-06T15:50:56;93884.63;;;-3.40
70415;BMP280;57837;52.064;113.478;2023-04-06T15:54:00;93885.34;;;-3.39
70415;BMP280;57837;52.064;113.478;2023-04-06T15:57:04;93888.56;;;-3.42
70415;BMP280;57837;52.064;113.478;2023-04-06T16:00:08;93883.19;;;-3.56
70415;BMP280;57837;52.064;113.478;2023-04-06T16:03:13;93885.44;;;-3.71
70415;BMP280;57837;52.064;113.478;2023-04-06T16:06:17;93885.34;;;-3.74
70415;BMP280;57837;52.064;113.478;2023-04-06T16:09:22;93881.72;;;-3.92
70415;BMP280;57837;52.064;113.478;2023-04-06T16:12:25;93882.94;;;-4.02
70415;BMP280;57837;52.064;113.478;2023-04-06T16:15:31;93877.47;;;-3.88
70415;BMP280;57837;52.064;113.478;2023-04-06T16:18:34;93872.28;;;-3.76
70415;BMP280;57837;52.064;113.478;2023-04-06T16:21:38;93867.34;;;-3.73
70415;BMP280;57837;52.064;113.478;2023-04-06T16:24:42;93875.81;;;-3.81
70415;BMP280;57837;52.064;113.478;2023-04-06T16:27:46;93872.25;;;-3.96
70415;BMP280;57837;52.064;113.478;2023-04-06T16:30:50;93875.81;;;-3.97
70415;BMP280;57837;52.064;113.478;2023-04-06T16:33:55;93872.25;;;-3.96
70415;BMP280;57837;52.064;113.478;2023-04-06T16:36:59;93874.53;;;-4.06
70415;BMP280;57837;52.064;113.478;2023-04-06T16:40:04;93870.09;;;-4.13
70415;BMP280;57837;52.064;113.478;2023-04-06T16:43:08;93869.75;;;-4.11
70415;BMP280;57837;52.064;113.478;2023-04-06T16:46:12;93863.31;;;-4.24
70415;BMP280;57837;52.064;113.478;2023-04-06T16:49:16;93863.78;;;-4.35
70415;BMP280;57837;52.064;113.478;2023-04-06T16:52:21;93868.75;;;-4.54
70415;BMP280;57837;52.064;113.478;2023-04-06T16:55:25;93873.78;;;-4.70
70415;BMP280;57837;52.064;113.478;2023-04-06T16:58:33;93880.00;;;-4.79
70415;BMP280;57837;52.064;113.478;2023-04-06T17:01:36;93882.56;;;-5.19
70415;BMP280;57837;52.064;113.478;2023-04-06T17:04:39;93884.38;;;-5.44
70415;BMP280;57837;52.064;113.478;2023-04-06T17:07:43;93890.22;;;-5.56
70415;BMP280;57837;52.064;113.478;2023-04-06T17:10:46;93877.47;;;-5.47
70415;BMP280;57837;52.064;113.478;2023-04-06T17:14:06;93874.50;;;-5.37
70415;BMP280;57837;52.064;113.478;2023-04-06T17:17:10;93875.25;;;-5.37
70415;BMP280;57837;52.064;113.478;2023-04-06T17:20:14;93871.25;;;-5.38
70415;BMP280;57837;52.064;113.478;2023-04-06T17:23:17;93872.31;;;-5.39
70415;BMP280;57837;52.064;113.478;2023-04-06T17:26:21;93876.22;;;-5.53
70415;BMP280;57837;52.064;113.478;2023-04-06T17:29:25;93864.47;;;-5.49